sensor_id;sensor_type;location;lat;lon;timestamp;temperature;humidity
12967;DHT22;6548;49.996;8.238;2022-07-04T00:00:14;18.60;99.90
12967;DHT22;6548;49.996;8.238;2022-07-04T00:02:41;18.60;99.90
12967;DHT22;6548;49.996;8.238;2022-07-04T00:05:08;18.60;99.90
12967;DHT22;6548;49.996;8.238;2022-07-04T00:07:44;18.60;99.90
12967;DHT22;6548;49.996;8.238;2022-07-04T00:10:14;18.60;99.90
12967;DHT22;6548;49.996;8.238;2022-07-04T00:12:40;18.50;99.90
12967;DHT22;6548;49.996;8.238;2022-07-04T00:15:07;18.50;99.90
12967;DHT22;6548;49.996;8.238;2022-07-04T00:17:33;18.50;99.90
12967;DHT22;6548;49.996;8.238;2022-07-04T00:19:59;18.40;99.90
12967;DHT22;6548;49.996;8.238;2022-07-04T00:22:25;18.40;99.90
12967;DHT22;6548;49.996;8.238;2022-07-04T00:24:51;18.30;99.90
12967;DHT22;6548;49.996;8.238;2022-07-04T00:27:17;18.40;99.90
12967;DHT22;6548;49.996;8.238;2022-07-04T00:29:43;18.30;99.90
12967;DHT22;6548;49.996;8.238;2022-07-04T00:32:09;18.30;99.90
12967;DHT22;6548;49.996;8.238;2022-07-04T00:34:34;18.60;99.90
12967;DHT22;6548;49.996;8.238;2022-07-04T00:37:00;18.80;99.90
12967;DHT22;6548;49.996;8.238;2022-07-04T00:39:26;18.50;99.90
12967;DHT22;6548;49.996;8.238;2022-07-04T00:41:52;18.20;99.90
12967;DHT22;6548;49.996;8.238;2022-07-04T00:44:17;18.20;99.90
12967;DHT22;6548;49.996;8.238;2022-07-04T00:46:44;18.10;99.90
12967;DHT22;6548;49.996;8.238;2022-07-04T00:49:11;18.10;99.90
12967;DHT22;6548;49.996;8.238;2022-07-04T00:51:38;18.00;99.90
12967;DHT22;6548;49.996;8.238;2022-07-04T00:54:05;17.90;99.90
12967;DHT22;6548;49.996;8.238;2022-07-04T00:56:31;17.90;99.90
12967;DHT22;6548;49.996;8.238;2022-07-04T00:58:57;17.90;99.90
12967;DHT22;6548;49.996;8.238;2022-07-04T01:01:24;17.90;99.90
12967;DHT22;6548;49.996;8.238;2022-07-04T01:03:50;17.90;99.90
12967;DHT22;6548;49.996;8.238;2022-07-04T01:06:16;17.90;99.90
12967;DHT22;6548;49.996;8.238;2022-07-04T01:08:44;17.80;99.90
12967;DHT22;6548;49.996;8.238;2022-07-04T01:11:10;17.80;99.90
12967;DHT22;6548;49.996;8.238;2022-07-04T01:13:36;17.80;99.90
12967;DHT22;6548;49.996;8.238;2022-07-04T01:16:03;17.80;99.90
12967;DHT22;6548;49.996;8.238;2022-07-04T01:18:30;17.80;99.90
12967;DHT22;6548;49.996;8.238;2022-07-04T01:20:55;17.70;99.90
12967;DHT22;6548;49.996;8.238;2022-07-04T01:23:21;18.20;99.90
12967;DHT22;6548;49.996;8.238;2022-07-04T01:25:47;17.70;99.90
12967;DHT22;6548;49.996;8.238;2022-07-04T01:28:14;17.70;99.90
12967;DHT22;6548;49.996;8.238;2022-07-04T01:30:39;17.70;99.90
12967;DHT22;6548;49.996;8.238;2022-07-04T01:33:05;17.60;99.90
12967;DHT22;6548;49.996;8.238;2022-07-04T01:35:31;17.70;99.90
12967;DHT22;6548;49.996;8.238;2022-07-04T01:37:57;17.50;99.90
12967;DHT22;6548;49.996;8.238;2022-07-04T01:40:22;17.50;99.90
12967;DHT22;6548;49.996;8.238;2022-07-04T01:42:48;17.40;99.90
12967;DHT22;6548;49.996;8.238;2022-07-04T01:45:14;17.40;99.90
12967;DHT22;6548;49.996;8.238;2022-07-04T01:47:40;17.40;99.90
12967;DHT22;6548;49.996;8.238;2022-07-04T01:50:08;17.30;99.90
12967;DHT22;6548;49.996;8.238;2022-07-04T01:52:34;17.30;99.90
12967;DHT22;6548;49.996;8.238;2022-07-04T01:55:00;17.20;99.90
12967;DHT22;6548;49.996;8.238;2022-07-04T01:57:26;17.10;99.90
12967;DHT22;6548;49.996;8.238;2022-07-04T01:59:52;17.20;99.90
12967;DHT22;6548;49.996;8.238;2022-07-04T02:02:36;17.10;99.90
12967;DHT22;6548;49.996;8.238;2022-07-04T02:05:03;17.00;99.90
12967;DHT22;6548;49.996;8.238;2022-07-04T02:07:28;17.00;99.90
12967;DHT22;6548;49.996;8.238;2022-07-04T02:09:54;17.00;99.90
12967;DHT22;6548;49.996;8.238;2022-07-04T02:12:20;16.90;99.90
12967;DHT22;6548;49.996;8.238;2022-07-04T02:15:04;17.00;99.90
12967;DHT22;6548;49.996;8.238;2022-07-04T02:17:30;16.90;99.90
12967;DHT22;6548;49.996;8.238;2022-07-04T02:19:55;16.90;99.90
12967;DHT22;6548;49.996;8.238;2022-07-04T02:22:21;16.80;99.90
12967;DHT22;6548;49.996;8.238;2022-07-04T02:24:47;16.70;99.90
12967;DHT22;6548;49.996;8.238;2022-07-04T02:27:13;16.80;99.90
12967;DHT22;6548;49.996;8.238;2022-07-04T02:29:39;16.70;99.90
12967;DHT22;6548;49.996;8.238;2022-07-04T02:32:05;16.70;99.90
12967;DHT22;6548;49.996;8.238;2022-07-04T02:34:31;16.60;99.90
12967;DHT22;6548;49.996;8.238;2022-07-04T02:36:56;16.60;99.90
12967;DHT22;6548;49.996;8.238;2022-07-04T02:39:22;16.60;99.90
12967;DHT22;6548;49.996;8.238;2022-07-04T02:41:48;16.50;99.90
12967;DHT22;6548;49.996;8.238;2022-07-04T02:44:13;16.50;99.90
12967;DHT22;6548;49.996;8.238;2022-07-04T02:46:39;16.50;99.90
12967;DHT22;6548;49.996;8.238;2022-07-04T02:49:05;16.50;99.90
12967;DHT22;6548;49.996;8.238;2022-07-04T02:51:31;16.50;99.90
12967;DHT22;6548;49.996;8.238;2022-07-04T02:53:56;16.50;99.90
12967;DHT22;6548;49.996;8.238;2022-07-04T02:56:22;16.50;99.90
12967;DHT22;6548;49.996;8.238;2022-07-04T02:58:48;16.40;99.90
12967;DHT22;6548;49.996;8.238;2022-07-04T03:01:13;16.90;99.90
12967;DHT22;6548;49.996;8.238;2022-07-04T03:03:40;16.30;99.90
12967;DHT22;6548;49.996;8.238;2022-07-04T03:06:10;16.30;99.90
12967;DHT22;6548;49.996;8.238;2022-07-04T03:08:36;16.30;99.90
12967;DHT22;6548;49.996;8.238;2022-07-04T03:11:02;16.20;99.90
12967;DHT22;6548;49.996;8.238;2022-07-04T03:13:27;16.20;99.90
12967;DHT22;6548;49.996;8.238;2022-07-04T03:15:53;16.70;99.90
12967;DHT22;6548;49.996;8.238;2022-07-04T03:18:19;16.10;99.90
12967;DHT22;6548;49.996;8.238;2022-07-04T03:20:44;16.10;99.90
12967;DHT22;6548;49.996;8.238;2022-07-04T03:23:10;16.10;99.90
12967;DHT22;6548;49.996;8.238;2022-07-04T03:25:36;16.00;99.90
12967;DHT22;6548;49.996;8.238;2022-07-04T03:28:02;16.00;99.90
12967;DHT22;6548;49.996;8.238;2022-07-04T03:30:27;15.90;99.90
12967;DHT22;6548;49.996;8.238;2022-07-04T03:32:53;15.90;99.90
12967;DHT22;6548;49.996;8.238;2022-07-04T03:35:19;15.80;99.90
12967;DHT22;6548;49.996;8.238;2022-07-04T03:37:44;15.80;99.90
12967;DHT22;6548;49.996;8.238;2022-07-04T03:40:10;15.80;99.90
12967;DHT22;6548;49.996;8.238;2022-07-04T03:42:36;15.80;99.90
12967;DHT22;6548;49.996;8.238;2022-07-04T03:45:02;15.80;99.90
12967;DHT22;6548;49.996;8.238;2022-07-04T03:47:27;15.80;99.90
12967;DHT22;6548;49.996;8.238;2022-07-04T03:49:53;15.80;99.90
12967;DHT22;6548;49.996;8.238;2022-07-04T03:52:18;15.90;99.90
12967;DHT22;6548;49.996;8.238;2022-07-04T03:54:44;16.20;99.90
12967;DHT22;6548;49.996;8.238;2022-07-04T03:57:09;15.90;99.90
12967;DHT22;6548;49.996;8.238;2022-07-04T03:59:35;16.20;99.90
12967;DHT22;6548;49.996;8.238;2022-07-04T04:02:01;15.90;99.90
12967;DHT22;6548;49.996;8.238;2022-07-04T04:04:26;16.00;99.90
12967;DHT22;6548;49.996;8.238;2022-07-04T04:07:10;15.90;99.90
12967;DHT22;6548;49.996;8.238;2022-07-04T04:09:36;16.00;99.90
12967;DHT22;6548;49.996;8.238;2022-07-04T04:12:02;16.00;99.90
12967;DHT22;6548;49.996;8.238;2022-07-04T04:14:28;16.00;99.90
12967;DHT22;6548;49.996;8.238;2022-07-04T04:16:53;16.10;99.90
12967;DHT22;6548;49.996;8.238;2022-07-04T04:19:19;16.10;99.90
12967;DHT22;6548;49.996;8.238;2022-07-04T04:21:45;16.60;99.90
12967;DHT22;6548;49.996;8.238;2022-07-04T04:24:10;16.20;99.90
12967;DHT22;6548;49.996;8.238;2022-07-04T04:26:36;16.90;99.90
12967;DHT22;6548;49.996;8.238;2022-07-04T04:29:02;16.20;99.90
12967;DHT22;6548;49.996;8.238;2022-07-04T04:31:27;16.20;99.90
12967;DHT22;6548;49.996;8.238;2022-07-04T04:33:53;16.30;99.90
12967;DHT22;6548;49.996;8.238;2022-07-04T04:36:18;16.40;99.90
12967;DHT22;6548;49.996;8.238;2022-07-04T04:38:44;16.40;99.90
12967;DHT22;6548;49.996;8.238;2022-07-04T04:41:10;16.50;99.90
12967;DHT22;6548;49.996;8.238;2022-07-04T04:43:36;17.10;99.90
12967;DHT22;6548;49.996;8.238;2022-07-04T04:46:01;16.60;99.90
12967;DHT22;6548;49.996;8.238;2022-07-04T04:48:27;16.60;99.90
12967;DHT22;6548;49.996;8.238;2022-07-04T04:50:52;16.70;99.90
12967;DHT22;6548;49.996;8.238;2022-07-04T04:53:18;16.70;99.90
12967;DHT22;6548;49.996;8.238;2022-07-04T04:55:43;16.70;99.90
12967;DHT22;6548;49.996;8.238;2022-07-04T04:58:09;16.80;99.90
12967;DHT22;6548;49.996;8.238;2022-07-04T05:00:35;16.80;99.90
12967;DHT22;6548;49.996;8.238;2022-07-04T05:03:00;16.90;99.90
12967;DHT22;6548;49.996;8.238;2022-07-04T05:05:26;17.10;99.90
12967;DHT22;6548;49.996;8.238;2022-07-04T05:07:51;17.00;99.90
12967;DHT22;6548;49.996;8.238;2022-07-04T05:10:17;17.10;99.90
12967;DHT22;6548;49.996;8.238;2022-07-04T05:12:43;17.10;99.90
12967;DHT22;6548;49.996;8.238;2022-07-04T05:15:09;17.20;99.90
12967;DHT22;6548;49.996;8.238;2022-07-04T05:17:35;17.30;99.90
12967;DHT22;6548;49.996;8.238;2022-07-04T05:20:00;17.30;99.90
12967;DHT22;6548;49.996;8.238;2022-07-04T05:22:26;17.40;99.90
12967;DHT22;6548;49.996;8.238;2022-07-04T05:24:51;17.50;99.90
12967;DHT22;6548;49.996;8.238;2022-07-04T05:27:17;17.50;99.90
12967;DHT22;6548;49.996;8.238;2022-07-04T05:29:43;17.70;99.90
12967;DHT22;6548;49.996;8.238;2022-07-04T05:32:08;17.60;99.90
12967;DHT22;6548;49.996;8.238;2022-07-04T05:34:34;17.70;99.90
12967;DHT22;6548;49.996;8.238;2022-07-04T05:37:00;17.80;99.90
12967;DHT22;6548;49.996;8.238;2022-07-04T05:39:26;18.50;99.90
12967;DHT22;6548;49.996;8.238;2022-07-04T05:41:51;18.00;99.90
12967;DHT22;6548;49.996;8.238;2022-07-04T05:44:17;18.00;99.90
12967;DHT22;6548;49.996;8.238;2022-07-04T05:46:43;18.10;99.90
12967;DHT22;6548;49.996;8.238;2022-07-04T05:49:08;18.10;99.90
12967;DHT22;6548;49.996;8.238;2022-07-04T05:51:34;18.20;99.90
12967;DHT22;6548;49.996;8.238;2022-07-04T05:53:59;18.20;99.90
12967;DHT22;6548;49.996;8.238;2022-07-04T05:56:25;18.30;99.90
12967;DHT22;6548;49.996;8.238;2022-07-04T05:58:50;18.40;99.90
12967;DHT22;6548;49.996;8.238;2022-07-04T06:01:16;18.60;99.90
12967;DHT22;6548;49.996;8.238;2022-07-04T06:03:41;18.70;99.90
12967;DHT22;6548;49.996;8.238;2022-07-04T06:06:07;18.90;99.90
12967;DHT22;6548;49.996;8.238;2022-07-04T06:08:33;19.00;99.90
12967;DHT22;6548;49.996;8.238;2022-07-04T06:10:58;19.00;99.90
12967;DHT22;6548;49.996;8.238;2022-07-04T06:13:24;19.20;99.90
12967;DHT22;6548;49.996;8.238;2022-07-04T06:15:50;19.70;99.90
12967;DHT22;6548;49.996;8.238;2022-07-04T06:18:15;19.50;99.90
12967;DHT22;6548;49.996;8.238;2022-07-04T06:20:41;20.20;99.90
12967;DHT22;6548;49.996;8.238;2022-07-04T06:23:07;20.50;99.90
12967;DHT22;6548;49.996;8.238;2022-07-04T06:25:33;21.10;99.90
12967;DHT22;6548;49.996;8.238;2022-07-04T06:27:59;21.60;99.90
12967;DHT22;6548;49.996;8.238;2022-07-04T06:30:25;22.70;99.90
12967;DHT22;6548;49.996;8.238;2022-07-04T06:32:54;23.10;99.90
12967;DHT22;6548;49.996;8.238;2022-07-04T06:35:25;23.70;99.90
12967;DHT22;6548;49.996;8.238;2022-07-04T06:38:14;24.20;99.90
12967;DHT22;6548;49.996;8.238;2022-07-04T06:40:41;24.20;99.90
12967;DHT22;6548;49.996;8.238;2022-07-04T06:43:07;24.50;99.90
12967;DHT22;6548;49.996;8.238;2022-07-04T06:45:33;24.60;99.90
12967;DHT22;6548;49.996;8.238;2022-07-04T06:48:00;25.20;99.90
12967;DHT22;6548;49.996;8.238;2022-07-04T06:50:25;25.70;99.90
12967;DHT22;6548;49.996;8.238;2022-07-04T06:52:51;25.80;99.90
12967;DHT22;6548;49.996;8.238;2022-07-04T06:55:17;25.90;99.90
12967;DHT22;6548;49.996;8.238;2022-07-04T06:57:43;26.50;99.90
12967;DHT22;6548;49.996;8.238;2022-07-04T07:00:09;26.10;99.90
12967;DHT22;6548;49.996;8.238;2022-07-04T07:02:36;26.40;99.90
12967;DHT22;6548;49.996;8.238;2022-07-04T07:05:02;27.20;99.90
12967;DHT22;6548;49.996;8.238;2022-07-04T07:07:28;27.50;99.90
12967;DHT22;6548;49.996;8.238;2022-07-04T07:09:54;27.50;99.90
12967;DHT22;6548;49.996;8.238;2022-07-04T07:12:21;27.50;99.90
12967;DHT22;6548;49.996;8.238;2022-07-04T07:14:47;27.40;99.90
12967;DHT22;6548;49.996;8.238;2022-07-04T07:17:13;27.90;99.90
12967;DHT22;6548;49.996;8.238;2022-07-04T07:19:40;27.30;99.90
12967;DHT22;6548;49.996;8.238;2022-07-04T07:22:06;26.60;99.90
12967;DHT22;6548;49.996;8.238;2022-07-04T07:24:31;24.60;99.90
12967;DHT22;6548;49.996;8.238;2022-07-04T07:26:57;24.40;99.90
12967;DHT22;6548;49.996;8.238;2022-07-04T07:29:23;24.50;99.90
12967;DHT22;6548;49.996;8.238;2022-07-04T07:31:49;25.90;99.90
12967;DHT22;6548;49.996;8.238;2022-07-04T07:34:14;26.70;99.90
12967;DHT22;6548;49.996;8.238;2022-07-04T07:36:40;27.20;99.90
12967;DHT22;6548;49.996;8.238;2022-07-04T07:39:06;27.20;99.90
12967;DHT22;6548;49.996;8.238;2022-07-04T07:41:32;26.70;99.90
12967;DHT22;6548;49.996;8.238;2022-07-04T07:43:57;26.50;99.90
12967;DHT22;6548;49.996;8.238;2022-07-04T07:46:23;26.80;99.90
12967;DHT22;6548;49.996;8.238;2022-07-04T07:48:49;26.80;99.90
12967;DHT22;6548;49.996;8.238;2022-07-04T07:51:14;26.90;99.90
12967;DHT22;6548;49.996;8.238;2022-07-04T07:53:42;27.50;99.90
12967;DHT22;6548;49.996;8.238;2022-07-04T07:56:07;28.20;99.90
12967;DHT22;6548;49.996;8.238;2022-07-04T07:58:33;28.00;99.90
12967;DHT22;6548;49.996;8.238;2022-07-04T08:01:00;28.20;99.90
12967;DHT22;6548;49.996;8.238;2022-07-04T08:03:28;27.80;99.90
12967;DHT22;6548;49.996;8.238;2022-07-04T08:06:13;27.90;99.90
12967;DHT22;6548;49.996;8.238;2022-07-04T08:08:40;28.00;99.90
12967;DHT22;6548;49.996;8.238;2022-07-04T08:11:22;28.40;99.90
12967;DHT22;6548;49.996;8.238;2022-07-04T08:13:47;28.30;99.90
12967;DHT22;6548;49.996;8.238;2022-07-04T08:16:13;28.00;99.90
12967;DHT22;6548;49.996;8.238;2022-07-04T08:18:39;28.20;99.90
12967;DHT22;6548;49.996;8.238;2022-07-04T08:21:05;28.00;99.90
12967;DHT22;6548;49.996;8.238;2022-07-04T08:23:32;28.30;99.90
12967;DHT22;6548;49.996;8.238;2022-07-04T08:25:59;28.20;99.90
12967;DHT22;6548;49.996;8.238;2022-07-04T08:28:25;28.30;99.90
12967;DHT22;6548;49.996;8.238;2022-07-04T08:30:51;28.60;99.90
12967;DHT22;6548;49.996;8.238;2022-07-04T08:33:17;28.80;99.90
12967;DHT22;6548;49.996;8.238;2022-07-04T08:35:42;29.70;99.90
12967;DHT22;6548;49.996;8.238;2022-07-04T08:38:08;29.90;99.90
12967;DHT22;6548;49.996;8.238;2022-07-04T08:40:34;29.80;99.90
12967;DHT22;6548;49.996;8.238;2022-07-04T08:43:02;29.70;99.90
12967;DHT22;6548;49.996;8.238;2022-07-04T08:45:30;29.00;99.90
12967;DHT22;6548;49.996;8.238;2022-07-04T08:48:03;28.60;99.90
12967;DHT22;6548;49.996;8.238;2022-07-04T08:50:44;26.10;99.90
12967;DHT22;6548;49.996;8.238;2022-07-04T08:53:15;26.80;99.90
12967;DHT22;6548;49.996;8.238;2022-07-04T08:55:41;28.10;99.90
12967;DHT22;6548;49.996;8.238;2022-07-04T08:58:26;28.50;99.90
12967;DHT22;6548;49.996;8.238;2022-07-04T09:01:06;28.90;99.90
12967;DHT22;6548;49.996;8.238;2022-07-04T09:03:43;29.60;99.90
12967;DHT22;6548;49.996;8.238;2022-07-04T09:06:09;29.50;99.90
12967;DHT22;6548;49.996;8.238;2022-07-04T09:08:35;29.40;99.90
12967;DHT22;6548;49.996;8.238;2022-07-04T09:11:02;29.00;99.90
12967;DHT22;6548;49.996;8.238;2022-07-04T09:13:28;28.70;99.90
12967;DHT22;6548;49.996;8.238;2022-07-04T09:15:55;29.30;99.90
12967;DHT22;6548;49.996;8.238;2022-07-04T09:20:58;29.80;99.90
12967;DHT22;6548;49.996;8.238;2022-07-04T09:23:36;29.40;99.90
12967;DHT22;6548;49.996;8.238;2022-07-04T09:26:11;29.10;99.90
12967;DHT22;6548;49.996;8.238;2022-07-04T09:28:38;29.10;99.90
12967;DHT22;6548;49.996;8.238;2022-07-04T09:31:18;29.30;99.90
12967;DHT22;6548;49.996;8.238;2022-07-04T09:36:18;29.30;99.90
12967;DHT22;6548;49.996;8.238;2022-07-04T09:38:44;28.20;99.90
12967;DHT22;6548;49.996;8.238;2022-07-04T09:41:10;27.80;99.90
12967;DHT22;6548;49.996;8.238;2022-07-04T09:44:04;28.10;99.90
12967;DHT22;6548;49.996;8.238;2022-07-04T09:46:31;28.10;99.90
12967;DHT22;6548;49.996;8.238;2022-07-04T09:48:57;27.50;99.90
12967;DHT22;6548;49.996;8.238;2022-07-04T09:51:42;28.40;99.90
12967;DHT22;6548;49.996;8.238;2022-07-04T09:54:27;29.20;99.90
12967;DHT22;6548;49.996;8.238;2022-07-04T09:56:59;30.40;99.80
12967;DHT22;6548;49.996;8.238;2022-07-04T09:59:26;30.70;98.30
12967;DHT22;6548;49.996;8.238;2022-07-04T10:02:06;29.60;98.20
12967;DHT22;6548;49.996;8.238;2022-07-04T10:07:31;29.80;97.80
12967;DHT22;6548;49.996;8.238;2022-07-04T10:09:57;29.90;96.70
12967;DHT22;6548;49.996;8.238;2022-07-04T10:12:27;29.90;97.10
12967;DHT22;6548;49.996;8.238;2022-07-04T10:14:55;30.90;96.50
12967;DHT22;6548;49.996;8.238;2022-07-04T10:17:21;31.20;95.50
12967;DHT22;6548;49.996;8.238;2022-07-04T10:19:47;31.00;94.90
12967;DHT22;6548;49.996;8.238;2022-07-04T10:22:16;31.00;94.60
12967;DHT22;6548;49.996;8.238;2022-07-04T10:24:43;31.10;95.00
12967;DHT22;6548;49.996;8.238;2022-07-04T10:27:09;31.00;94.10
12967;DHT22;6548;49.996;8.238;2022-07-04T10:29:35;31.60;93.80
12967;DHT22;6548;49.996;8.238;2022-07-04T10:32:01;32.10;93.10
12967;DHT22;6548;49.996;8.238;2022-07-04T10:34:27;31.10;92.80
12967;DHT22;6548;49.996;8.238;2022-07-04T10:36:53;32.00;92.30
12967;DHT22;6548;49.996;8.238;2022-07-04T10:39:22;32.00;91.00
12967;DHT22;6548;49.996;8.238;2022-07-04T10:41:58;32.30;90.70
12967;DHT22;6548;49.996;8.238;2022-07-04T10:44:25;30.20;91.40
12967;DHT22;6548;49.996;8.238;2022-07-04T10:46:52;30.30;91.50
12967;DHT22;6548;49.996;8.238;2022-07-04T10:49:26;30.40;91.50
12967;DHT22;6548;49.996;8.238;2022-07-04T10:57:14;31.90;90.50
12967;DHT22;6548;49.996;8.238;2022-07-04T11:00:01;31.90;90.60
12967;DHT22;6548;49.996;8.238;2022-07-04T11:02:31;31.60;90.00
12967;DHT22;6548;49.996;8.238;2022-07-04T11:17:56;30.50;90.10
12967;DHT22;6548;49.996;8.238;2022-07-04T11:20:24;30.50;90.40
12967;DHT22;6548;49.996;8.238;2022-07-04T11:22:50;30.20;90.20
12967;DHT22;6548;49.996;8.238;2022-07-04T11:25:15;30.60;90.60
12967;DHT22;6548;49.996;8.238;2022-07-04T11:27:42;31.70;89.80
12967;DHT22;6548;49.996;8.238;2022-07-04T11:30:08;31.50;89.10
12967;DHT22;6548;49.996;8.238;2022-07-04T11:32:36;31.10;89.60
12967;DHT22;6548;49.996;8.238;2022-07-04T11:35:04;31.00;88.50
12967;DHT22;6548;49.996;8.238;2022-07-04T11:37:30;31.20;88.80
12967;DHT22;6548;49.996;8.238;2022-07-04T11:39:57;31.40;87.30
12967;DHT22;6548;49.996;8.238;2022-07-04T11:43:05;32.20;85.00
12967;DHT22;6548;49.996;8.238;2022-07-04T11:45:49;33.50;84.40
12967;DHT22;6548;49.996;8.238;2022-07-04T11:48:35;33.90;83.60
12967;DHT22;6548;49.996;8.238;2022-07-04T11:51:01;33.90;82.10
12967;DHT22;6548;49.996;8.238;2022-07-04T11:53:26;33.90;79.40
12967;DHT22;6548;49.996;8.238;2022-07-04T11:55:57;33.40;81.20
12967;DHT22;6548;49.996;8.238;2022-07-04T11:58:39;33.30;82.90
12967;DHT22;6548;49.996;8.238;2022-07-04T12:01:04;33.90;83.20
12967;DHT22;6548;49.996;8.238;2022-07-04T12:03:32;33.50;80.80
12967;DHT22;6548;49.996;8.238;2022-07-04T12:06:10;33.70;81.10
12967;DHT22;6548;49.996;8.238;2022-07-04T14:21:10;35.90;68.00
12967;DHT22;6548;49.996;8.238;2022-07-04T14:23:36;34.50;67.10
12967;DHT22;6548;49.996;8.238;2022-07-04T14:26:09;33.50;68.80
12967;DHT22;6548;49.996;8.238;2022-07-04T14:28:36;33.80;68.00
12967;DHT22;6548;49.996;8.238;2022-07-04T14:31:02;35.10;67.10
12967;DHT22;6548;49.996;8.238;2022-07-04T14:33:27;34.40;65.60
12967;DHT22;6548;49.996;8.238;2022-07-04T14:35:53;34.80;67.00
12967;DHT22;6548;49.996;8.238;2022-07-04T14:38:19;35.50;65.50
12967;DHT22;6548;49.996;8.238;2022-07-04T14:40:45;36.00;66.00
12967;DHT22;6548;49.996;8.238;2022-07-04T14:43:13;36.50;65.30
12967;DHT22;6548;49.996;8.238;2022-07-04T14:45:39;35.60;64.40
12967;DHT22;6548;49.996;8.238;2022-07-04T14:48:05;35.90;66.60
12967;DHT22;6548;49.996;8.238;2022-07-04T14:50:31;36.80;64.10
12967;DHT22;6548;49.996;8.238;2022-07-04T14:52:56;37.10;63.80
12967;DHT22;6548;49.996;8.238;2022-07-04T14:55:22;36.50;63.50
12967;DHT22;6548;49.996;8.238;2022-07-04T14:57:48;35.90;64.10
12967;DHT22;6548;49.996;8.238;2022-07-04T15:00:13;35.00;64.90
12967;DHT22;6548;49.996;8.238;2022-07-04T15:02:39;34.70;65.80
12967;DHT22;6548;49.996;8.238;2022-07-04T15:05:05;34.90;66.50
12967;DHT22;6548;49.996;8.238;2022-07-04T15:07:32;34.90;65.30
12967;DHT22;6548;49.996;8.238;2022-07-04T15:09:57;35.10;65.30
12967;DHT22;6548;49.996;8.238;2022-07-04T15:12:23;34.70;64.60
12967;DHT22;6548;49.996;8.238;2022-07-04T15:14:48;33.80;65.70
12967;DHT22;6548;49.996;8.238;2022-07-04T15:17:14;34.00;66.60
12967;DHT22;6548;49.996;8.238;2022-07-04T15:19:40;34.20;65.70
12967;DHT22;6548;49.996;8.238;2022-07-04T15:22:24;33.70;66.30
12967;DHT22;6548;49.996;8.238;2022-07-04T15:25:08;33.90;65.20
12967;DHT22;6548;49.996;8.238;2022-07-04T15:27:34;34.00;64.60
12967;DHT22;6548;49.996;8.238;2022-07-04T15:29:59;34.50;64.50
12967;DHT22;6548;49.996;8.238;2022-07-04T15:32:25;34.20;65.00
12967;DHT22;6548;49.996;8.238;2022-07-04T15:34:51;33.40;64.60
12967;DHT22;6548;49.996;8.238;2022-07-04T15:37:16;34.30;64.60
12967;DHT22;6548;49.996;8.238;2022-07-04T15:39:42;33.90;62.80
12967;DHT22;6548;49.996;8.238;2022-07-04T15:42:07;34.00;63.60
12967;DHT22;6548;49.996;8.238;2022-07-04T15:44:33;33.20;64.90
12967;DHT22;6548;49.996;8.238;2022-07-04T15:46:58;33.90;64.40
12967;DHT22;6548;49.996;8.238;2022-07-04T15:49:33;33.50;64.40
12967;DHT22;6548;49.996;8.238;2022-07-04T15:51:59;34.50;65.00
12967;DHT22;6548;49.996;8.238;2022-07-04T15:54:25;34.30;63.30
12967;DHT22;6548;49.996;8.238;2022-07-04T15:56:50;34.10;63.60
12967;DHT22;6548;49.996;8.238;2022-07-04T15:59:16;33.90;65.10
12967;DHT22;6548;49.996;8.238;2022-07-04T16:01:49;34.50;64.80
12967;DHT22;6548;49.996;8.238;2022-07-04T16:04:15;34.90;63.50
12967;DHT22;6548;49.996;8.238;2022-07-04T16:06:41;34.50;64.80
12967;DHT22;6548;49.996;8.238;2022-07-04T16:09:07;34.50;64.50
12967;DHT22;6548;49.996;8.238;2022-07-04T16:11:33;34.40;64.50
12967;DHT22;6548;49.996;8.238;2022-07-04T16:13:58;34.00;64.80
12967;DHT22;6548;49.996;8.238;2022-07-04T16:16:24;34.10;65.20
12967;DHT22;6548;49.996;8.238;2022-07-04T16:18:49;33.30;65.60
12967;DHT22;6548;49.996;8.238;2022-07-04T16:21:15;33.20;66.50
12967;DHT22;6548;49.996;8.238;2022-07-04T16:23:42;32.50;66.80
12967;DHT22;6548;49.996;8.238;2022-07-04T16:26:08;33.10;67.40
12967;DHT22;6548;49.996;8.238;2022-07-04T16:28:33;33.20;66.30
12967;DHT22;6548;49.996;8.238;2022-07-04T16:30:59;32.60;67.00
12967;DHT22;6548;49.996;8.238;2022-07-04T16:33:25;33.20;67.40
12967;DHT22;6548;49.996;8.238;2022-07-04T16:35:50;33.00;67.50
12967;DHT22;6548;49.996;8.238;2022-07-04T16:38:16;33.10;67.00
12967;DHT22;6548;49.996;8.238;2022-07-04T16:40:42;32.50;67.10
12967;DHT22;6548;49.996;8.238;2022-07-04T16:43:09;32.40;67.70
12967;DHT22;6548;49.996;8.238;2022-07-04T16:45:35;33.40;67.30
12967;DHT22;6548;49.996;8.238;2022-07-04T16:48:00;33.60;65.40
12967;DHT22;6548;49.996;8.238;2022-07-04T16:50:30;33.20;66.80
12967;DHT22;6548;49.996;8.238;2022-07-04T16:52:55;33.30;66.10
12967;DHT22;6548;49.996;8.238;2022-07-04T16:55:21;34.00;65.70
12967;DHT22;6548;49.996;8.238;2022-07-04T16:57:46;33.70;65.90
12967;DHT22;6548;49.996;8.238;2022-07-04T17:00:12;34.00;65.70
12967;DHT22;6548;49.996;8.238;2022-07-04T17:02:38;33.60;65.50
12967;DHT22;6548;49.996;8.238;2022-07-04T17:05:04;33.50;66.40
12967;DHT22;6548;49.996;8.238;2022-07-04T17:07:30;33.30;66.70
12967;DHT22;6548;49.996;8.238;2022-07-04T17:09:55;33.40;66.90
12967;DHT22;6548;49.996;8.238;2022-07-04T17:12:21;32.70;67.20
12967;DHT22;6548;49.996;8.238;2022-07-04T17:14:46;32.50;68.50
12967;DHT22;6548;49.996;8.238;2022-07-04T17:17:12;32.70;68.00
12967;DHT22;6548;49.996;8.238;2022-07-04T17:19:40;32.50;68.90
12967;DHT22;6548;49.996;8.238;2022-07-04T17:22:06;32.40;68.60
12967;DHT22;6548;49.996;8.238;2022-07-04T17:24:31;32.60;68.80
12967;DHT22;6548;49.996;8.238;2022-07-04T17:26:57;32.20;69.60
12967;DHT22;6548;49.996;8.238;2022-07-04T17:29:23;31.80;68.80
12967;DHT22;6548;49.996;8.238;2022-07-04T17:31:48;31.40;69.80
12967;DHT22;6548;49.996;8.238;2022-07-04T17:34:14;31.60;70.20
12967;DHT22;6548;49.996;8.238;2022-07-04T17:36:40;31.70;70.10
12967;DHT22;6548;49.996;8.238;2022-07-04T17:39:05;31.90;69.20
12967;DHT22;6548;49.996;8.238;2022-07-04T17:41:31;31.30;70.40
12967;DHT22;6548;49.996;8.238;2022-07-04T17:44:05;31.40;71.20
12967;DHT22;6548;49.996;8.238;2022-07-04T17:46:31;31.50;70.50
12967;DHT22;6548;49.996;8.238;2022-07-04T17:48:57;31.70;70.10
12967;DHT22;6548;49.996;8.238;2022-07-04T17:51:23;31.60;70.50
12967;DHT22;6548;49.996;8.238;2022-07-04T17:53:50;31.00;70.70
12967;DHT22;6548;49.996;8.238;2022-07-04T17:56:16;30.50;71.40
12967;DHT22;6548;49.996;8.238;2022-07-04T17:58:42;30.10;72.30
12967;DHT22;6548;49.996;8.238;2022-07-04T18:01:08;29.70;72.60
12967;DHT22;6548;49.996;8.238;2022-07-04T18:03:41;29.70;72.70
12967;DHT22;6548;49.996;8.238;2022-07-04T18:06:08;29.60;73.30
12967;DHT22;6548;49.996;8.238;2022-07-04T18:08:35;29.60;73.00
12967;DHT22;6548;49.996;8.238;2022-07-04T18:11:01;29.40;73.40
12967;DHT22;6548;49.996;8.238;2022-07-04T18:13:29;29.10;74.00
12967;DHT22;6548;49.996;8.238;2022-07-04T18:15:56;28.90;74.20
12967;DHT22;6548;49.996;8.238;2022-07-04T18:18:34;29.10;74.50
12967;DHT22;6548;49.996;8.238;2022-07-04T18:31:29;27.60;77.20
12967;DHT22;6548;49.996;8.238;2022-07-04T18:33:54;26.20;78.20